Time;durP1;ratioP1;P1;durP2;ratioP2;P2;SDS_P1;SDS_P2;PMS_P1;PMS_P2;Temp;Humidity;BMP_temperature;BMP_pressure;BME280_temperature;BME280_humidity;BME280_pressure;Samples;Min_cycle;Max_cycle;Signal;HPM_P1;HPM_P2
2020/12/19 00:01:03;;;;;;;4.85;2.12;;;;;;;;;;4347995;32;20505;-65
2020/12/19 00:03:29;;;;;;;4.62;2.45;;;;;;;;;;4314006;33;20094;-64
2020/12/19 00:05:55;;;;;;;3.83;2.22;;;;;;;;;;4335680;33;20071;-64
2020/12/19 00:08:20;;;;;;;3.05;2.37;;;;;;;;;;4331389;33;20214;-64
2020/12/19 00:10:48;;;;;;;3.42;2.08;;;;;;;;;;4332356;33;20079;-65
2020/12/19 00:13:14;;;;;;;2.95;2.15;;;;;;;;;;4332080;33;20072;-63
2020/12/19 00:15:41;;;;;;;2.40;1.85;;;;;;;;;;4333422;33;20083;-64
2020/12/19 00:18:07;;;;;;;2.95;2.08;;;;;;;;;;4320647;33;20090;-65
2020/12/19 00:20:34;;;;;;;2.67;1.62;;;;;;;;;;4319743;33;20079;-64
2020/12/19 00:23:01;;;;;;;2.85;2.10;;;;;;;;;;4344215;33;20071;-64
2020/12/19 00:25:26;;;;;;;3.65;2.47;;;;;;;;;;4331901;33;20089;-64
2020/12/19 00:27:52;;;;;;;2.55;2.00;;;;;;;;;;4333254;33;20507;-64
2020/12/19 00:30:18;;;;;;;4.00;2.17;;;;;;;;;;4337471;33;20109;-64
2020/12/19 00:32:43;;;;;;;;;;;;;;;;;;4346832;33;20082;-64
2020/12/19 00:35:09;;;;;;;5.57;2.35;;;;;;;;;;4334125;33;20049;-64
2020/12/19 00:37:42;;;;;;;3.20;2.03;;;;;;;;;;4346403;32;20105;-63
2020/12/19 00:40:10;;;;;;;3.75;2.42;;;;;;;;;;4333797;33;20184;-64
2020/12/19 00:42:41;;;;;;;4.35;2.35;;;;;;;;;;4346454;33;20059;-65
2020/12/19 00:45:08;;;;;;;4.65;2.85;;;;;;;;;;4346480;33;20101;-64
2020/12/19 00:47:38;;;;;;;4.68;2.95;;;;;;;;;;4334577;33;20082;-64
2020/12/19 00:50:05;;;;;;;4.07;2.50;;;;;;;;;;4347551;32;20071;-64
2020/12/19 00:52:30;;;;;;;5.95;2.62;;;;;;;;;;4346411;32;20445;-65
2020/12/19 00:54:57;;;;;;;4.87;2.90;;;;;;;;;;4346222;33;20070;-64
2020/12/19 00:57:23;;;;;;;3.47;2.83;;;;;;;;;;4347529;32;20074;-65
2020/12/19 00:59:48;;;;;;;;;;;;;;;;;;4334728;33;20505;-65
2020/12/19 01:02:14;;;;;;;3.95;2.78;;;;;;;;;;4345937;33;19973;-64
2020/12/19 01:04:40;;;;;;;5.32;2.75;;;;;;;;;;4346022;33;20082;-64
2020/12/19 01:07:10;;;;;;;4.68;2.35;;;;;;;;;;4345740;33;20102;-65
2020/12/19 01:09:36;;;;;;;4.60;2.45;;;;;;;;;;4345734;33;20075;-63
2020/12/19 01:12:04;;;;;;;4.62;2.67;;;;;;;;;;4345881;33;20083;-65
2020/12/19 01:14:30;;;;;;;5.35;2.55;;;;;;;;;;4321899;33;20073;-64
2020/12/19 01:16:57;;;;;;;5.30;2.67;;;;;;;;;;4347774;32;20288;-64
2020/12/19 01:19:22;;;;;;;3.60;2.40;;;;;;;;;;4345961;33;20069;-64
2020/12/19 01:21:48;;;;;;;7.32;3.30;;;;;;;;;;4346961;32;20090;-64
2020/12/19 01:24:14;;;;;;;14.07;7.95;;;;;;;;;;4345712;33;20504;-64
2020/12/19 01:26:39;;;;;;;10.25;4.47;;;;;;;;;;4350487;32;20090;-64
2020/12/19 01:29:05;;;;;;;11.73;6.50;;;;;;;;;;4339085;33;20114;-64
2020/12/19 01:31:31;;;;;;;9.90;5.45;;;;;;;;;;4345083;33;20487;-65
2020/12/19 01:33:57;;;;;;;9.35;4.97;;;;;;;;;;4357740;32;20079;-64
2020/12/19 01:36:23;;;;;;;9.80;5.53;;;;;;;;;;4346891;32;20074;-64
2020/12/19 01:38:49;;;;;;;8.65;5.37;;;;;;;;;;4333685;32;20089;-64
2020/12/19 01:41:16;;;;;;;11.25;6.12;;;;;;;;;;4357776;32;20071;-64
2020/12/19 01:43:49;;;;;;;12.95;6.62;;;;;;;;;;4345919;33;20079;-64
2020/12/19 01:46:28;;;;;;;9.85;5.30;;;;;;;;;;4345133;32;20087;-65
2020/12/19 01:48:56;;;;;;;3.85;2.55;;;;;;;;;;4345918;33;20070;-64
2020/12/19 01:51:23;;;;;;;4.55;2.25;;;;;;;;;;4333315;33;20070;-64
2020/12/19 01:53:52;;;;;;;5.43;2.37;;;;;;;;;;4345074;33;20098;-65
2020/12/19 01:56:42;;;;;;;3.65;2.30;;;;;;;;;;4346258;32;20075;-64
2020/12/19 01:59:08;;;;;;;4.57;2.20;;;;;;;;;;4334691;33;20459;-64
2020/12/19 02:01:56;;;;;;;4.55;2.40;;;;;;;;;;4345408;33;20083;-64
2020/12/19 02:04:24;;;;;;;4.80;2.37;;;;;;;;;;4333592;33;20527;-64
2020/12/19 02:06:53;;;;;;;6.82;2.60;;;;;;;;;;4308903;33;20158;-65
2020/12/19 02:09:20;;;;;;;4.60;2.40;;;;;;;;;;4345258;32;20090;-63
2020/12/19 02:11:46;;;;;;;5.20;2.80;;;;;;;;;;4345356;33;20086;-65
2020/12/19 02:14:12;;;;;;;3.75;2.62;;;;;;;;;;4345027;33;20082;-63
2020/12/19 02:16:37;;;;;;;4.68;3.15;;;;;;;;;;4345250;33;20162;-63
2020/12/19 02:19:12;;;;;;;5.82;2.55;;;;;;;;;;4346722;32;20502;-63
2020/12/19 02:21:40;;;;;;;6.10;3.33;;;;;;;;;;4345242;33;20672;-64
2020/12/19 02:24:05;;;;;;;5.10;3.60;;;;;;;;;;4345474;33;20074;-63
2020/12/19 02:26:32;;;;;;;6.37;3.85;;;;;;;;;;4346458;32;20196;-64
2020/12/19 02:28:57;;;;;;;7.32;3.75;;;;;;;;;;4332783;33;20183;-65
2020/12/19 02:31:23;;;;;;;7.40;3.30;;;;;;;;;;4344970;33;20610;-64
2020/12/19 02:33:49;;;;;;;5.72;3.20;;;;;;;;;;4357425;32;20070;-64
2020/12/19 02:36:15;;;;;;;4.30;2.42;;;;;;;;;;4332497;33;20087;-65
2020/12/19 02:38:40;;;;;;;;;;;;;;;;;;4345681;33;20068;-64
2020/12/19 02:41:07;;;;;;;6.82;2.50;;;;;;;;;;4346493;33;20060;-64
2020/12/19 02:43:34;;;;;;;4.40;2.40;;;;;;;;;;4347516;33;20082;-64
2020/12/19 02:46:01;;;;;;;5.10;2.65;;;;;;;;;;4347768;33;20171;-64
2020/12/19 02:48:27;;;;;;;3.80;2.50;;;;;;;;;;4348370;33;20055;-63
2020/12/19 02:50:53;;;;;;;4.80;2.70;;;;;;;;;;4347566;33;20075;-64
2020/12/19 02:53:18;;;;;;;4.62;3.05;;;;;;;;;;4347979;33;20082;-65
2020/12/19 02:55:44;;;;;;;8.07;3.50;;;;;;;;;;4347855;33;20087;-63
2020/12/19 02:58:10;;;;;;;5.05;3.40;;;;;;;;;;4348954;32;20505;-64
2020/12/19 03:00:35;;;;;;;5.40;3.40;;;;;;;;;;4349327;32;20100;-65
2020/12/19 03:03:01;;;;;;;4.80;2.97;;;;;;;;;;4347980;33;20172;-63
2020/12/19 03:05:27;;;;;;;5.53;2.83;;;;;;;;;;4347720;33;20090;-64
2020/12/19 03:07:54;;;;;;;3.53;2.35;;;;;;;;;;4347379;33;20097;-64
2020/12/19 03:10:20;;;;;;;4.32;2.50;;;;;;;;;;4335001;33;20472;-63
2020/12/19 03:12:46;;;;;;;4.15;2.20;;;;;;;;;;4347530;33;20154;-64
2020/12/19 03:15:11;;;;;;;3.67;2.42;;;;;;;;;;4349119;32;20094;-63
2020/12/19 03:17:37;;;;;;;;;;;;;;;;;;4349416;32;20162;-65
2020/12/19 03:20:03;;;;;;;7.68;3.90;;;;;;;;;;4347505;33;19978;-65
2020/12/19 03:22:29;;;;;;;8.90;4.43;;;;;;;;;;4347725;33;20164;-65
2020/12/19 03:24:56;;;;;;;9.15;5.10;;;;;;;;;;4359925;32;20075;-64
2020/12/19 03:27:21;;;;;;;6.30;3.70;;;;;;;;;;4347280;32;20078;-65
2020/12/19 03:29:48;;;;;;;6.55;3.45;;;;;;;;;;4347758;33;20097;-65
2020/12/19 03:32:14;;;;;;;6.55;3.33;;;;;;;;;;4347330;33;20149;-65
2020/12/19 03:34:40;;;;;;;5.85;3.10;;;;;;;;;;4347504;33;20079;-63
2020/12/19 03:37:05;;;;;;;6.57;3.08;;;;;;;;;;4359685;32;20071;-63
2020/12/19 03:39:31;;;;;;;6.40;3.50;;;;;;;;;;4347503;33;20074;-64
2020/12/19 03:41:57;;;;;;;8.00;3.60;;;;;;;;;;4347432;33;20098;-64
2020/12/19 03:44:24;;;;;;;6.07;2.97;;;;;;;;;;4347191;33;20070;-63
2020/12/19 03:46:49;;;;;;;5.50;2.90;;;;;;;;;;4359944;32;20082;-64
2020/12/19 03:49:15;;;;;;;5.55;2.70;;;;;;;;;;4348571;32;20501;-65
2020/12/19 03:51:41;;;;;;;4.68;2.60;;;;;;;;;;4346965;32;20071;-63
2020/12/19 03:54:07;;;;;;;6.82;3.20;;;;;;;;;;4358655;32;20067;-65
2020/12/19 03:56:33;;;;;;;7.40;3.22;;;;;;;;;;4348360;32;20090;-64
2020/12/19 03:58:59;;;;;;;12.07;4.40;;;;;;;;;;4347224;33;20171;-64
2020/12/19 04:01:24;;;;;;;10.18;5.25;;;;;;;;;;4346852;33;20469;-63
2020/12/19 04:03:50;;;;;;;12.50;6.30;;;;;;;;;;4348675;32;20176;-63
2020/12/19 04:06:18;;;;;;;14.85;7.40;;;;;;;;;;4347299;33;20588;-64
2020/12/19 04:08:44;;;;;;;19.80;9.25;;;;;;;;;;4337133;33;20078;-63
2020/12/19 04:11:10;;;;;;;14.80;8.48;;;;;;;;;;4352510;32;20093;-67
2020/12/19 04:13:36;;;;;;;16.75;8.02;;;;;;;;;;4351491;32;20081;-64
2020/12/19 04:16:02;;;;;;;13.15;7.05;;;;;;;;;;4338099;33;20552;-64
2020/12/19 04:18:28;;;;;;;14.25;8.18;;;;;;;;;;4351147;32;20074;-63
2020/12/19 04:20:54;;;;;;;16.62;7.68;;;;;;;;;;4337616;33;20074;-64
2020/12/19 04:23:19;;;;;;;23.05;9.52;;;;;;;;;;4349753;33;20079;-65
2020/12/19 04:25:45;;;;;;;17.92;8.70;;;;;;;;;;4349634;32;20511;-64
2020/12/19 04:28:11;;;;;;;18.90;8.88;;;;;;;;;;4350411;32;20516;-64
2020/12/19 04:30:37;;;;;;;15.10;7.07;;;;;;;;;;4349761;33;20082;-64
2020/12/19 04:33:03;;;;;;;12.57;7.12;;;;;;;;;;4362153;32;20457;-64
2020/12/19 04:35:29;;;;;;;9.70;6.05;;;;;;;;;;4349080;33;20102;-63
2020/12/19 04:37:57;;;;;;;8.70;5.05;;;;;;;;;;4350242;32;20082;-64
2020/12/19 04:40:23;;;;;;;11.00;4.93;;;;;;;;;;4350760;32;20086;-65
2020/12/19 04:42:50;;;;;;;7.37;4.62;;;;;;;;;;4349467;32;20091;-64
2020/12/19 04:45:17;;;;;;;8.10;4.75;;;;;;;;;;4348461;33;20051;-64
2020/12/19 04:47:45;;;;;;;7.25;4.00;;;;;;;;;;4351101;32;20067;-65
2020/12/19 04:50:12;;;;;;;6.78;3.45;;;;;;;;;;4337085;33;20185;-63
2020/12/19 04:52:38;;;;;;;7.20;4.05;;;;;;;;;;4337980;33;20071;-64
2020/12/19 04:55:04;;;;;;;8.07;3.92;;;;;;;;;;4352422;32;20074;-64
2020/12/19 04:57:29;;;;;;;;;;;;;;;;;;4351051;33;20081;-67
2020/12/19 04:59:58;;;;;;;8.33;4.50;;;;;;;;;;4351333;33;20079;-64
2020/12/19 05:02:25;;;;;;;9.15;4.60;;;;;;;;;;4349936;33;20062;-64
2020/12/19 05:04:51;;;;;;;13.18;5.55;;;;;;;;;;4350622;32;20148;-64
2020/12/19 05:07:16;;;;;;;8.23;5.65;;;;;;;;;;4348753;33;20260;-64
2020/12/19 05:09:44;;;;;;;9.65;5.78;;;;;;;;;;4337221;33;20110;-64
2020/12/19 05:12:11;;;;;;;10.23;4.78;;;;;;;;;;4350913;33;20086;-65
2020/12/19 05:14:38;;;;;;;10.80;6.37;;;;;;;;;;4350239;33;20576;-66
2020/12/19 05:17:05;;;;;;;16.20;8.43;;;;;;;;;;4349934;33;20082;-65
2020/12/19 05:19:30;;;;;;;14.70;7.95;;;;;;;;;;4336979;33;20071;-64
2020/12/19 05:21:57;;;;;;;12.07;6.47;;;;;;;;;;4325427;33;20090;-64
2020/12/19 05:24:31;;;;;;;11.98;5.70;;;;;;;;;;4350842;32;20070;-64
2020/12/19 05:26:59;;;;;;;13.62;6.37;;;;;;;;;;4338399;33;20111;-63
2020/12/19 05:29:25;;;;;;;16.02;6.10;;;;;;;;;;4337476;33;20059;-64
2020/12/19 05:31:53;;;;;;;9.95;5.78;;;;;;;;;;4349979;33;20082;-64
2020/12/19 05:34:20;;;;;;;7.22;3.78;;;;;;;;;;4349236;33;20157;-65
2020/12/19 05:36:46;;;;;;;6.80;4.22;;;;;;;;;;4336540;33;20055;-64
2020/12/19 05:39:12;;;;;;;7.53;4.18;;;;;;;;;;4336801;33;20090;-66
2020/12/19 05:41:38;;;;;;;7.22;3.40;;;;;;;;;;4347582;33;20078;-63
2020/12/19 05:44:06;;;;;;;8.05;3.50;;;;;;;;;;4348695;32;20093;-63
2020/12/19 05:46:40;;;;;;;5.80;3.05;;;;;;;;;;4346481;33;20067;-63
2020/12/19 05:49:08;;;;;;;8.02;4.07;;;;;;;;;;4345769;33;20540;-66
2020/12/19 05:51:35;;;;;;;6.87;3.37;;;;;;;;;;4334143;33;20066;-65
2020/12/19 05:54:08;;;;;;;8.52;3.35;;;;;;;;;;4333149;33;20088;-65
2020/12/19 05:56:49;;;;;;;5.68;3.83;;;;;;;;;;4333584;33;20105;-64
2020/12/19 05:59:16;;;;;;;7.82;3.95;;;;;;;;;;4343299;33;20469;-65
2020/12/19 06:01:46;;;;;;;9.98;4.65;;;;;;;;;;4345059;33;20075;-65
2020/12/19 06:04:13;;;;;;;9.27;4.87;;;;;;;;;;4345034;33;20118;-64
2020/12/19 06:06:39;;;;;;;7.68;4.45;;;;;;;;;;4332426;33;20156;-64
2020/12/19 06:09:06;;;;;;;10.40;4.70;;;;;;;;;;4332046;33;20520;-65
2020/12/19 06:11:42;;;;;;;8.23;4.07;;;;;;;;;;4345400;33;20164;-64
2020/12/19 06:14:09;;;;;;;10.70;4.90;;;;;;;;;;4345147;32;20087;-64
2020/12/19 06:16:38;;;;;;;12.65;4.70;;;;;;;;;;4344947;32;20119;-64
2020/12/19 06:19:11;;;;;;;10.35;4.35;;;;;;;;;;4320123;33;20205;-65
2020/12/19 06:21:37;;;;;;;11.65;4.78;;;;;;;;;;4345236;32;20074;-63
2020/12/19 06:24:04;;;;;;;10.88;4.87;;;;;;;;;;4344612;32;20067;-65
2020/12/19 06:26:38;;;;;;;9.32;4.75;;;;;;;;;;4344820;32;20497;-63
2020/12/19 06:29:05;;;;;;;7.78;4.35;;;;;;;;;;4345483;33;20077;-65
2020/12/19 06:31:31;;;;;;;9.32;4.60;;;;;;;;;;4317486;33;20161;-64
2020/12/19 06:34:09;;;;;;;7.30;3.67;;;;;;;;;;4330445;33;20105;-65
2020/12/19 06:36:35;;;;;;;7.75;4.72;;;;;;;;;;4332211;33;20071;-63
2020/12/19 06:39:13;;;;;;;7.95;4.43;;;;;;;;;;4330141;33;20064;-64
2020/12/19 06:41:41;;;;;;;6.12;2.90;;;;;;;;;;4330709;33;20071;-64
2020/12/19 06:44:09;;;;;;;7.37;3.37;;;;;;;;;;4331150;33;20160;-64
2020/12/19 06:46:37;;;;;;;6.18;3.40;;;;;;;;;;4318459;33;20078;-64
2020/12/19 06:49:37;;;;;;;5.72;3.10;;;;;;;;;;4329876;33;20536;-64
2020/12/19 06:52:14;;;;;;;5.32;3.30;;;;;;;;;;4339267;33;20075;-63
2020/12/19 06:55:18;;;;;;;6.32;3.37;;;;;;;;;;4330844;33;20074;-64
2020/12/19 06:57:55;;;;;;;8.80;3.62;;;;;;;;;;4344088;33;20090;-63
2020/12/19 07:00:26;;;;;;;;;;;;;;;;;;4331392;33;20087;-64
2020/12/19 07:02:59;;;;;;;7.22;3.40;;;;;;;;;;4333590;33;19962;-64
2020/12/19 07:05:27;;;;;;;5.90;3.70;;;;;;;;;;4344180;33;20071;-63
2020/12/19 07:08:16;;;;;;;6.37;2.97;;;;;;;;;;4346331;32;20082;-62
2020/12/19 07:10:44;;;;;;;5.18;3.30;;;;;;;;;;4355938;32;20089;-65
2020/12/19 07:13:14;;;;;;;4.72;2.87;;;;;;;;;;4332912;33;20081;-65
2020/12/19 07:16:11;;;;;;;4.97;3.10;;;;;;;;;;4333089;33;20521;-65
2020/12/19 07:18:40;;;;;;;6.55;3.58;;;;;;;;;;4344734;33;20086;-65
2020/12/19 07:21:10;;;;;;;5.53;3.15;;;;;;;;;;4333158;33;20099;-65
2020/12/19 07:23:39;;;;;;;8.30;4.10;;;;;;;;;;4320457;33;20072;-64
2020/12/19 07:26:15;;;;;;;6.10;3.00;;;;;;;;;;4332353;33;20094;-65
2020/12/19 07:28:47;;;;;;;7.82;3.92;;;;;;;;;;4332914;33;20652;-65
2020/12/19 07:31:15;;;;;;;6.03;2.95;;;;;;;;;;4320986;33;20482;-64
2020/12/19 07:33:44;;;;;;;5.62;2.87;;;;;;;;;;4333402;33;20067;-65
2020/12/19 07:36:15;;;;;;;4.72;2.72;;;;;;;;;;4332918;33;20131;-64
2020/12/19 07:38:41;;;;;;;4.10;2.53;;;;;;;;;;4320596;33;20184;-63
2020/12/19 07:41:10;;;;;;;5.20;3.25;;;;;;;;;;4332577;33;20580;-65
2020/12/19 07:43:36;;;;;;;5.40;2.87;;;;;;;;;;4332284;33;20075;-64
2020/12/19 07:46:04;;;;;;;5.95;3.20;;;;;;;;;;4320423;33;20087;-64
2020/12/19 07:48:34;;;;;;;5.10;2.80;;;;;;;;;;4332441;33;20083;-64
2020/12/19 07:51:08;;;;;;;5.78;2.58;;;;;;;;;;4332067;33;20083;-66
2020/12/19 07:53:57;;;;;;;6.72;2.90;;;;;;;;;;4331908;33;20087;-65
2020/12/19 07:56:24;;;;;;;6.82;3.30;;;;;;;;;;4342779;33;20099;-65
2020/12/19 07:58:50;;;;;;;6.75;3.22;;;;;;;;;;4331827;33;20098;-64
2020/12/19 08:01:19;;;;;;;5.82;2.70;;;;;;;;;;4330115;33;20101;-65
2020/12/19 08:03:59;;;;;;;11.52;3.85;;;;;;;;;;4336014;33;20067;-63
2020/12/19 08:06:47;;;;;;;11.85;4.40;;;;;;;;;;4347033;33;20075;-64
2020/12/19 08:09:31;;;;;;;7.70;2.80;;;;;;;;;;4346256;33;20070;-66
2020/12/19 08:12:05;;;;;;;5.82;2.60;;;;;;;;;;4345244;33;20499;-66
2020/12/19 08:14:34;;;;;;;5.35;2.40;;;;;;;;;;4346882;33;20143;-65
2020/12/19 08:17:02;;;;;;;5.22;2.80;;;;;;;;;;4346963;33;20071;-63
2020/12/19 08:19:52;;;;;;;5.65;2.85;;;;;;;;;;4335218;33;20106;-63
2020/12/19 08:22:20;;;;;;;6.22;2.87;;;;;;;;;;4334201;33;20085;-65
2020/12/19 08:24:48;;;;;;;7.95;2.78;;;;;;;;;;4346648;33;20071;-65
2020/12/19 08:27:43;;;;;;;8.48;3.47;;;;;;;;;;4321661;33;20070;-65
2020/12/19 08:30:16;;;;;;;5.15;2.80;;;;;;;;;;4331668;33;20491;-65
2020/12/19 08:32:58;;;;;;;8.35;3.83;;;;;;;;;;4332217;33;20078;-65
2020/12/19 08:35:43;;;;;;;7.80;3.03;;;;;;;;;;4332329;33;20221;-66
2020/12/19 08:38:19;;;;;;;5.55;2.72;;;;;;;;;;4332099;33;20090;-65
2020/12/19 08:40:49;;;;;;;9.52;4.87;;;;;;;;;;4322271;33;20177;-66
2020/12/19 08:43:17;;;;;;;7.72;3.55;;;;;;;;;;4319155;33;20152;-66
2020/12/19 08:45:43;;;;;;;8.18;3.90;;;;;;;;;;4331322;33;20089;-65
2020/12/19 08:48:22;;;;;;;5.45;3.45;;;;;;;;;;4331483;33;20174;-65
2020/12/19 08:50:51;;;;;;;6.47;3.28;;;;;;;;;;4318794;33;20086;-66
2020/12/19 08:53:29;;;;;;;7.20;3.25;;;;;;;;;;4319748;33;20093;-65
2020/12/19 08:55:56;;;;;;;6.40;3.83;;;;;;;;;;4331572;33;20640;-65
2020/12/19 08:58:37;;;;;;;7.57;3.30;;;;;;;;;;4318915;33;20067;-65
2020/12/19 09:01:14;;;;;;;5.82;3.55;;;;;;;;;;4332114;33;20090;-66
2020/12/19 09:03:40;;;;;;;6.82;3.65;;;;;;;;;;4310035;33;20094;-68
2020/12/19 09:06:16;;;;;;;7.30;3.75;;;;;;;;;;4346215;33;20058;-66
2020/12/19 09:08:45;;;;;;;5.45;3.05;;;;;;;;;;4346606;32;20070;-64
2020/12/19 09:11:44;;;;;;;8.77;4.60;;;;;;;;;;4346259;33;20071;-64
2020/12/19 09:14:14;;;;;;;8.20;4.28;;;;;;;;;;4348619;33;20066;-65
2020/12/19 09:16:50;;;;;;;6.22;3.30;;;;;;;;;;4346684;33;20066;-64
2020/12/19 09:19:18;;;;;;;8.45;4.10;;;;;;;;;;4321840;33;20093;-66
2020/12/19 09:22:06;;;;;;;8.05;4.25;;;;;;;;;;4346198;32;20151;-64
2020/12/19 09:24:33;;;;;;;11.02;5.18;;;;;;;;;;4345901;33;20520;-65
2020/12/19 09:27:02;;;;;;;8.98;4.70;;;;;;;;;;4347208;32;20522;-64
2020/12/19 09:29:28;;;;;;;9.38;4.37;;;;;;;;;;4333278;33;20086;-65
2020/12/19 09:31:54;;;;;;;7.12;3.72;;;;;;;;;;4346017;33;20094;-65
2020/12/19 09:34:21;;;;;;;10.07;4.05;;;;;;;;;;4347279;32;20093;-64
2020/12/19 09:36:49;;;;;;;7.10;3.97;;;;;;;;;;4345692;32;20512;-65
2020/12/19 09:39:21;;;;;;;6.05;3.22;;;;;;;;;;4347636;32;20082;-64
2020/12/19 09:41:47;;;;;;;6.35;3.55;;;;;;;;;;4347855;32;20501;-65
2020/12/19 09:44:15;;;;;;;6.93;3.40;;;;;;;;;;4322570;33;20174;-67
2020/12/19 09:46:42;;;;;;;6.18;3.62;;;;;;;;;;4333514;33;20172;-63
2020/12/19 09:49:09;;;;;;;6.18;3.67;;;;;;;;;;4357892;32;20082;-65
2020/12/19 09:51:38;;;;;;;10.88;4.22;;;;;;;;;;4332631;33;20078;-64
2020/12/19 09:54:06;;;;;;;7.57;3.42;;;;;;;;;;4321655;33;20090;-66
2020/12/19 09:56:40;;;;;;;7.50;3.65;;;;;;;;;;4334155;33;20160;-66
2020/12/19 09:59:08;;;;;;;10.65;3.90;;;;;;;;;;4345140;33;20081;-66
2020/12/19 10:01:35;;;;;;;6.35;4.30;;;;;;;;;;4345321;33;20071;-67
2020/12/19 10:04:02;;;;;;;8.77;4.30;;;;;;;;;;4354571;32;20068;-66
2020/12/19 10:06:29;;;;;;;10.65;4.10;;;;;;;;;;4345281;32;20158;-65
2020/12/19 10:08:57;;;;;;;5.60;3.47;;;;;;;;;;4333257;33;20066;-66
2020/12/19 10:11:27;;;;;;;7.22;3.65;;;;;;;;;;4344885;33;20528;-66
2020/12/19 10:13:56;;;;;;;6.47;3.47;;;;;;;;;;4345669;33;20575;-66
2020/12/19 10:16:23;;;;;;;6.45;3.45;;;;;;;;;;4345553;33;20078;-65
2020/12/19 10:18:51;;;;;;;7.00;3.87;;;;;;;;;;4333116;33;20160;-66
2020/12/19 10:21:19;;;;;;;7.78;3.33;;;;;;;;;;4345396;33;20171;-66
2020/12/19 10:23:48;;;;;;;7.32;3.75;;;;;;;;;;4346632;32;20220;-64
2020/12/19 10:26:20;;;;;;;8.63;3.85;;;;;;;;;;4333468;32;20085;-65
2020/12/19 10:29:07;;;;;;;9.18;4.25;;;;;;;;;;4346342;33;20078;-66
2020/12/19 10:31:41;;;;;;;8.75;4.47;;;;;;;;;;4346525;32;20139;-65
2020/12/19 10:34:29;;;;;;;6.90;4.07;;;;;;;;;;4345382;33;20486;-66
2020/12/19 10:36:59;;;;;;;10.05;4.35;;;;;;;;;;4333293;33;20074;-65
2020/12/19 10:39:27;;;;;;;6.50;3.60;;;;;;;;;;4345362;33;20177;-65
2020/12/19 10:41:56;;;;;;;5.70;3.00;;;;;;;;;;4345125;33;20147;-64
2020/12/19 10:44:36;;;;;;;8.63;4.32;;;;;;;;;;4344937;33;20497;-64
2020/12/19 10:47:07;;;;;;;10.43;4.18;;;;;;;;;;4334475;33;20146;-65
2020/12/19 10:49:40;;;;;;;9.50;3.35;;;;;;;;;;4345429;33;20497;-65
2020/12/19 10:52:08;;;;;;;8.35;3.47;;;;;;;;;;4332964;33;20100;-65
2020/12/19 10:54:36;;;;;;;9.23;3.65;;;;;;;;;;4345195;33;20524;-66
2020/12/19 10:57:03;;;;;;;7.57;3.42;;;;;;;;;;4333271;33;20512;-64
2020/12/19 10:59:32;;;;;;;10.57;4.47;;;;;;;;;;4332715;33;20147;-65
2020/12/19 11:02:03;;;;;;;10.70;5.15;;;;;;;;;;4345619;33;20163;-65
2020/12/19 11:04:30;;;;;;;8.23;3.83;;;;;;;;;;4347700;32;20169;-65
2020/12/19 11:07:00;;;;;;;9.60;4.12;;;;;;;;;;4349232;32;20087;-66
2020/12/19 11:09:27;;;;;;;7.72;4.03;;;;;;;;;;4347195;33;20071;-64
2020/12/19 11:11:53;;;;;;;6.95;4.05;;;;;;;;;;4310840;33;20521;-66
2020/12/19 11:14:20;;;;;;;7.78;4.75;;;;;;;;;;4335552;33;20073;-65
2020/12/19 11:16:47;;;;;;;6.55;3.65;;;;;;;;;;4347934;33;20154;-65
2020/12/19 11:19:14;;;;;;;7.50;4.37;;;;;;;;;;4347567;33;20164;-64
2020/12/19 11:21:44;;;;;;;10.30;3.95;;;;;;;;;;4349233;33;20079;-65
2020/12/19 11:24:12;;;;;;;8.25;3.90;;;;;;;;;;4346672;33;20079;-65
2020/12/19 11:26:43;;;;;;;9.20;3.70;;;;;;;;;;4351193;32;20090;-66
2020/12/19 11:29:20;;;;;;;9.05;4.03;;;;;;;;;;4337368;33;20078;-65
2020/12/19 11:31:50;;;;;;;11.65;4.15;;;;;;;;;;4350713;32;20162;-64
2020/12/19 11:34:22;;;;;;;7.20;3.58;;;;;;;;;;4349637;33;20081;-65
2020/12/19 11:37:12;;;;;;;6.95;3.80;;;;;;;;;;4347614;33;20094;-65
2020/12/19 11:39:38;;;;;;;11.02;4.03;;;;;;;;;;4350575;32;20078;-66
2020/12/19 11:42:06;;;;;;;7.68;4.37;;;;;;;;;;4347297;33;20160;-66
2020/12/19 11:44:33;;;;;;;10.10;4.62;;;;;;;;;;4335338;33;20418;-66
2020/12/19 11:47:01;;;;;;;11.57;5.05;;;;;;;;;;4347464;33;20137;-65
2020/12/19 11:49:26;;;;;;;11.20;4.57;;;;;;;;;;4334778;33;20074;-65
2020/12/19 11:51:54;;;;;;;;;;;;;;;;;;4347836;33;20178;-64
2020/12/19 11:54:23;;;;;;;10.13;5.20;;;;;;;;;;4347776;32;19973;-64
2020/12/19 11:56:55;;;;;;;12.25;5.75;;;;;;;;;;4334997;32;20075;-64
2020/12/19 11:59:27;;;;;;;12.07;5.30;;;;;;;;;;4349064;32;20098;-65
2020/12/19 12:01:54;;;;;;;10.73;6.00;;;;;;;;;;4346734;33;20173;-65
2020/12/19 12:04:27;;;;;;;11.82;5.68;;;;;;;;;;4347124;33;20082;-65
2020/12/19 12:06:54;;;;;;;11.93;5.75;;;;;;;;;;4346888;33;20067;-64
2020/12/19 12:09:22;;;;;;;13.32;5.97;;;;;;;;;;4346488;33;20090;-64
2020/12/19 12:11:57;;;;;;;13.62;6.72;;;;;;;;;;4332008;33;20086;-65
2020/12/19 12:14:29;;;;;;;9.05;5.05;;;;;;;;;;4332078;33;20074;-65
2020/12/19 12:17:17;;;;;;;11.65;5.53;;;;;;;;;;4332479;33;20077;-65
2020/12/19 12:19:44;;;;;;;9.30;5.07;;;;;;;;;;4320060;33;20445;-66
2020/12/19 12:22:10;;;;;;;8.75;4.50;;;;;;;;;;4331761;33;20086;-65
2020/12/19 12:24:38;;;;;;;8.38;4.95;;;;;;;;;;4332234;33;20087;-65
2020/12/19 12:27:04;;;;;;;8.27;4.20;;;;;;;;;;4320983;33;20082;-65
2020/12/19 12:29:32;;;;;;;9.02;4.68;;;;;;;;;;4332882;33;20157;-65
2020/12/19 12:32:01;;;;;;;9.65;4.70;;;;;;;;;;4316946;33;20506;-65
2020/12/19 12:34:27;;;;;;;12.15;5.90;;;;;;;;;;4318496;33;20157;-66
2020/12/19 12:36:53;;;;;;;16.60;6.82;;;;;;;;;;4304957;33;20095;-65
2020/12/19 12:39:20;;;;;;;15.05;6.57;;;;;;;;;;4317107;33;20080;-64
2020/12/19 12:41:48;;;;;;;11.52;7.15;;;;;;;;;;4316899;33;20186;-65
2020/12/19 12:44:18;;;;;;;20.55;8.40;;;;;;;;;;4317154;33;20090;-66
2020/12/19 12:46:45;;;;;;;18.70;8.88;;;;;;;;;;4318725;33;20453;-65
2020/12/19 12:49:12;;;;;;;12.55;7.35;;;;;;;;;;4316780;33;20064;-65
2020/12/19 12:51:38;;;;;;;15.68;7.53;;;;;;;;;;4316864;33;20071;-64
2020/12/19 12:54:06;;;;;;;18.40;9.18;;;;;;;;;;4316751;33;20102;-66
2020/12/19 12:56:34;;;;;;;30.33;15.63;;;;;;;;;;4316592;33;20068;-65
2020/12/19 12:59:01;;;;;;;18.73;9.68;;;;;;;;;;4331173;33;20075;-65
2020/12/19 13:01:31;;;;;;;21.30;10.05;;;;;;;;;;4331088;33;20176;-65
2020/12/19 13:03:58;;;;;;;29.17;16.33;;;;;;;;;;4319297;33;20090;-65
2020/12/19 13:06:24;;;;;;;24.25;12.40;;;;;;;;;;4322677;33;20529;-66
2020/12/19 13:08:52;;;;;;;34.53;18.20;;;;;;;;;;4318116;33;20084;-64
2020/12/19 13:11:20;;;;;;;25.27;12.95;;;;;;;;;;4303620;33;20446;-65
2020/12/19 13:13:47;;;;;;;28.05;14.50;;;;;;;;;;4331956;33;20068;-64
2020/12/19 13:16:15;;;;;;;25.60;13.38;;;;;;;;;;4331186;33;20449;-66
2020/12/19 13:18:42;;;;;;;26.98;14.35;;;;;;;;;;4331430;33;20517;-64
2020/12/19 13:21:11;;;;;;;36.47;20.08;;;;;;;;;;4331413;33;20148;-65
2020/12/19 13:23:38;;;;;;;27.13;14.73;;;;;;;;;;4333178;33;20067;-64
2020/12/19 13:26:05;;;;;;;24.65;13.27;;;;;;;;;;4331137;33;20098;-65
2020/12/19 13:28:32;;;;;;;19.98;11.65;;;;;;;;;;4330898;33;20064;-65
2020/12/19 13:30:59;;;;;;;16.73;10.52;;;;;;;;;;4336970;33;20066;-65
2020/12/19 13:33:26;;;;;;;18.92;9.43;;;;;;;;;;4330808;33;20071;-65
2020/12/19 13:35:52;;;;;;;18.52;8.63;;;;;;;;;;4331094;33;20091;-65
2020/12/19 13:38:18;;;;;;;13.32;8.45;;;;;;;;;;4331372;33;20083;-64
2020/12/19 13:40:47;;;;;;;12.32;6.80;;;;;;;;;;4331062;33;20184;-65
2020/12/19 13:43:14;;;;;;;12.73;6.18;;;;;;;;;;4331050;33;20075;-65
2020/12/19 13:45:39;;;;;;;12.98;5.30;;;;;;;;;;4319211;33;20102;-65
2020/12/19 13:48:06;;;;;;;11.32;5.20;;;;;;;;;;4332513;33;20097;-66
2020/12/19 13:50:32;;;;;;;11.32;5.45;;;;;;;;;;4332069;33;20441;-66
2020/12/19 13:52:58;;;;;;;10.05;5.47;;;;;;;;;;4330712;33;20094;-65
2020/12/19 13:55:24;;;;;;;;;;;;;;;;;;4331253;33;20075;-64
2020/12/19 13:57:50;;;;;;;10.75;5.20;;;;;;;;;;4330722;33;19978;-65
2020/12/19 14:00:16;;;;;;;11.10;5.97;;;;;;;;;;4330430;33;20078;-64
2020/12/19 14:02:44;;;;;;;10.95;4.93;;;;;;;;;;4331151;33;20226;-65
2020/12/19 14:05:10;;;;;;;11.30;5.57;;;;;;;;;;4342142;33;20097;-65
2020/12/19 14:07:36;;;;;;;11.85;5.57;;;;;;;;;;4318439;33;20517;-65
2020/12/19 14:10:03;;;;;;;11.25;5.65;;;;;;;;;;4342662;33;20075;-63
2020/12/19 14:12:29;;;;;;;9.15;4.90;;;;;;;;;;4330863;33;20095;-64
2020/12/19 14:14:55;;;;;;;9.85;6.05;;;;;;;;;;4330482;33;20079;-64
2020/12/19 14:17:23;;;;;;;10.43;6.37;;;;;;;;;;4330578;33;20091;-65
2020/12/19 14:19:48;;;;;;;11.65;6.90;;;;;;;;;;4330455;33;20091;-64
2020/12/19 14:22:15;;;;;;;14.05;6.93;;;;;;;;;;4330962;33;20555;-64
2020/12/19 14:24:41;;;;;;;13.68;8.77;;;;;;;;;;4330573;33;20438;-65
2020/12/19 14:27:06;;;;;;;13.65;7.45;;;;;;;;;;4330674;33;20074;-64
2020/12/19 14:29:32;;;;;;;;;;;;;;;;;;4331063;33;20087;-64
2020/12/19 14:32:00;;;;;;;17.17;8.02;;;;;;;;;;4342426;33;19966;-65
2020/12/19 14:34:26;;;;;;;17.65;8.60;;;;;;;;;;4330422;33;20173;-64
2020/12/19 14:36:54;;;;;;;13.88;8.93;;;;;;;;;;4318555;33;20095;-65
2020/12/19 14:39:21;;;;;;;13.93;8.00;;;;;;;;;;4334203;33;20501;-64
2020/12/19 14:41:50;;;;;;;11.52;6.15;;;;;;;;;;4335209;33;20173;-64
2020/12/19 14:44:18;;;;;;;11.02;5.20;;;;;;;;;;4333574;33;20085;-65
2020/12/19 14:46:45;;;;;;;10.13;5.53;;;;;;;;;;4333108;33;20156;-65
2020/12/19 14:49:12;;;;;;;11.60;6.78;;;;;;;;;;4333628;33;20166;-66
2020/12/19 14:51:38;;;;;;;7.85;4.82;;;;;;;;;;4321365;33;20067;-66